Time;durP1;ratioP1;P1;durP2;ratioP2;P2;SDS_P1;SDS_P2;PMS_P1;PMS_P2;Temp;Humidity;BMP_temperature;BMP_pressure;BME280_temperature;BME280_humidity;BME280_pressure;Samples;Min_cycle;Max_cycle;Signal;HPM_P1;HPM_P2
2022/08/05 00:00:46;;;;;;;7.57;3.72;;;;;;;22.28;60.19;98229.81;4202266;28;20127;-71
2022/08/05 00:02:46;;;;;;;7.05;3.70;;;;;;;22.21;60.31;98232.09;4202030;28;20574;-71
2022/08/05 00:04:47;;;;;;;6.78;3.58;;;;;;;22.12;60.89;98236.44;4202644;28;20058;-71
2022/08/05 00:06:47;;;;;;;4.25;3.30;;;;;;;22.04;61.23;98231.53;4200590;28;20052;-71
2022/08/05 00:08:48;;;;;;;5.22;3.35;;;;;;;22.03;60.38;98232.78;4202037;28;20468;-71
2022/08/05 00:10:48;;;;;;;5.00;3.28;;;;;;;22.06;60.44;98235.44;4203162;28;20054;-71
2022/08/05 00:12:48;;;;;;;4.50;3.13;;;;;;;22.06;60.60;98241.06;4201436;28;20350;-71
2022/08/05 00:14:49;;;;;;;6.70;3.90;;;;;;;22.06;60.25;98234.66;4202717;28;20824;-71
2022/08/05 00:16:49;;;;;;;5.97;3.40;;;;;;;22.14;60.04;98242.41;4201725;28;20964;-71
2022/08/05 00:18:49;;;;;;;6.78;3.55;;;;;;;22.18;59.95;98244.28;4202356;28;20130;-71
2022/08/05 00:20:50;;;;;;;9.25;3.60;;;;;;;22.15;60.60;98243.97;4202434;28;20059;-71
2022/08/05 00:22:51;;;;;;;5.05;3.65;;;;;;;22.13;60.27;98240.06;4201361;28;20399;-72
2022/08/05 00:24:51;;;;;;;5.18;3.90;;;;;;;22.17;59.76;98245.53;4202771;28;20117;-71
2022/08/05 00:26:52;;;;;;;5.32;3.65;;;;;;;22.18;60.13;98247.91;4202465;28;20422;-71
2022/08/05 00:28:52;;;;;;;9.60;3.90;;;;;;;22.20;59.96;98250.28;4201030;28;20055;-71
2022/08/05 00:30:52;;;;;;;8.35;4.00;;;;;;;22.17;60.71;98237.88;4201030;28;20384;-71
2022/08/05 00:32:53;;;;;;;8.23;4.00;;;;;;;22.14;60.83;98245.22;4196757;28;20139;-71
2022/08/05 00:34:53;;;;;;;9.30;4.20;;;;;;;22.09;60.80;98245.03;4197349;28;20369;-71
2022/08/05 00:36:54;;;;;;;5.43;3.90;;;;;;;22.09;60.06;98245.03;4195163;28;20048;-71
2022/08/05 00:38:54;;;;;;;5.25;3.90;;;;;;;22.09;61.34;98239.38;4199604;28;20068;-71
2022/08/05 00:40:57;;;;;;;5.22;3.38;;;;;;;22.08;60.74;98232.19;4198333;28;20420;-71
2022/08/05 00:42:59;;;;;;;12.48;3.72;;;;;;;22.06;60.20;98234.66;4199270;28;20048;-71
2022/08/05 00:45:00;;;;;;;5.88;3.72;;;;;;;21.90;62.58;98232.84;4199782;28;20188;-71
2022/08/05 00:47:01;;;;;;;6.13;3.17;;;;;;;21.76;62.53;98228.56;4202193;28;20553;-71
2022/08/05 00:49:01;;;;;;;7.25;3.80;;;;;;;21.74;61.42;98235.88;4200545;28;20310;-71
2022/08/05 00:51:01;;;;;;;5.40;4.00;;;;;;;21.69;62.26;98236.47;4201253;28;20073;-71
2022/08/05 00:53:02;;;;;;;4.65;3.50;;;;;;;21.62;61.92;98228.28;4201431;28;20043;-71
2022/08/05 00:55:03;;;;;;;4.78;3.58;;;;;;;21.58;62.56;98226.38;4196083;28;20757;-71
2022/08/05 00:57:04;;;;;;;4.45;3.38;;;;;;;21.55;62.37;98224.50;4201732;28;20035;-71
2022/08/05 00:59:05;;;;;;;4.85;3.72;;;;;;;21.57;62.17;98226.84;4201112;28;20101;-71
2022/08/05 01:01:06;;;;;;;4.68;3.85;;;;;;;21.53;63.10;98227.00;4201764;28;20500;-71
2022/08/05 01:03:06;;;;;;;5.95;3.53;;;;;;;21.46;63.58;98226.47;4201027;28;20157;-71
2022/08/05 01:05:07;;;;;;;9.13;4.15;;;;;;;21.37;64.04;98226.38;4201872;28;20618;-71
2022/08/05 01:07:07;;;;;;;5.20;3.45;;;;;;;21.27;64.16;98225.53;4201116;28;20407;-71
2022/08/05 01:09:08;;;;;;;6.07;3.70;;;;;;;21.23;64.14;98227.66;4199575;28;20048;-71
2022/08/05 01:11:20;;;;;;;9.32;4.22;;;;;;;21.23;63.77;98224.81;4202635;28;20040;-71
2022/08/05 01:13:23;;;;;;;6.93;3.95;;;;;;;21.17;65.19;98221.03;4199883;28;20040;-71
2022/08/05 01:15:31;;;;;;;6.18;3.63;;;;;;;21.07;65.12;98219.38;4202552;28;20051;-71
2022/08/05 01:17:31;;;;;;;7.32;3.25;;;;;;;20.99;65.79;98222.44;4201157;28;20314;-71
2022/08/05 01:19:40;;;;;;;5.80;3.75;;;;;;;20.96;65.97;98219.75;4200714;28;20044;-71
2022/08/05 01:22:05;;;;;;;8.90;4.03;;;;;;;20.96;65.53;98228.19;4200875;28;20462;-71
2022/08/05 01:24:32;;;;;;;6.88;4.10;;;;;;;20.96;66.39;98234.59;4199838;28;20052;-72
2022/08/05 01:26:48;;;;;;;4.57;3.90;;;;;;;20.97;66.98;98241.00;4201841;28;20040;-71
2022/08/05 01:29:12;;;;;;;7.35;3.85;;;;;;;20.94;67.40;98231.47;4201805;28;20079;-71
2022/08/05 01:31:20;;;;;;;6.03;3.83;;;;;;;20.95;67.63;98237.88;4201141;28;20052;-71
2022/08/05 01:33:24;;;;;;;5.93;3.65;;;;;;;20.93;67.35;98238.31;4201434;28;20106;-71
2022/08/05 01:35:30;;;;;;;7.07;4.30;;;;;;;20.89;67.69;98232.03;4202256;28;20555;-71
2022/08/05 01:37:38;;;;;;;7.03;4.60;;;;;;;20.86;67.54;98235.75;4201681;28;20054;-71
2022/08/05 01:39:41;;;;;;;7.13;4.25;;;;;;;20.84;67.37;98231.81;4199985;28;20047;-71
2022/08/05 01:41:45;;;;;;;4.65;3.80;;;;;;;20.79;66.97;98229.56;4200486;28;20043;-71
2022/08/05 01:43:47;;;;;;;6.20;3.70;;;;;;;20.72;67.48;98228.56;4199839;28;20036;-71
2022/08/05 01:45:48;;;;;;;7.53;3.65;;;;;;;20.69;66.27;98221.06;4200652;28;20103;-71
2022/08/05 01:47:50;;;;;;;10.23;4.18;;;;;;;20.67;67.31;98219.91;4202722;28;20044;-71
2022/08/05 01:49:52;;;;;;;9.45;4.30;;;;;;;20.59;67.35;98227.78;4200129;28;20083;-71
2022/08/05 01:51:55;;;;;;;;;;;;;;;20.57;67.31;98219.03;4200604;28;20395;-71
2022/08/05 01:53:58;;;;;;;11.73;4.00;;;;;;;20.45;67.70;98219.84;4200355;28;19920;-71
2022/08/05 01:55:58;;;;;;;;;;;;;;;20.45;67.01;98222.66;4203359;28;20051;-71
2022/08/05 01:58:00;;;;;;;6.28;3.95;;;;;;;20.44;66.89;98221.88;4205170;28;20687;-71
2022/08/05 02:00:04;;;;;;;4.45;3.75;;;;;;;20.41;67.23;98217.09;4204466;28;20479;-71
2022/08/05 02:02:06;;;;;;;5.63;3.90;;;;;;;20.38;67.57;98220.03;4203476;28;20380;-71
2022/08/05 02:04:09;;;;;;;5.88;3.85;;;;;;;20.32;67.33;98222.63;4203088;28;20021;-71
2022/08/05 02:06:10;;;;;;;8.82;4.43;;;;;;;20.30;67.98;98225.09;4204903;28;20084;-71
2022/08/05 02:08:11;;;;;;;5.53;4.00;;;;;;;20.25;67.61;98228.47;4205258;28;20068;-71
2022/08/05 02:10:12;;;;;;;5.90;4.13;;;;;;;20.18;67.63;98228.69;4203773;28;20082;-71
2022/08/05 02:12:18;;;;;;;6.40;4.05;;;;;;;20.22;68.09;98234.19;4204064;28;20043;-72
2022/08/05 02:14:32;;;;;;;8.43;3.83;;;;;;;20.16;68.42;98222.72;4203320;28;20036;-72
2022/08/05 02:16:40;;;;;;;5.60;4.07;;;;;;;20.14;68.54;98234.41;4204572;28;20207;-72
2022/08/05 02:19:11;;;;;;;6.55;3.78;;;;;;;20.18;68.39;98235.06;4203635;28;20048;-72
2022/08/05 02:21:23;;;;;;;9.07;4.05;;;;;;;20.13;70.00;98230.03;4204016;28;20052;-71
2022/08/05 02:23:27;;;;;;;;;;;;;;;20.14;69.87;98239.25;4202730;28;20044;-71
2022/08/05 02:25:32;;;;;;;9.90;4.40;;;;;;;20.11;71.57;98240.16;4203511;28;20008;-71
2022/08/05 02:27:36;;;;;;;5.88;3.83;;;;;;;20.09;71.08;98251.81;4204931;28;20065;-72
2022/08/05 02:29:40;;;;;;;4.80;3.97;;;;;;;20.05;71.05;98247.56;4202292;28;20472;-72
2022/08/05 02:31:43;;;;;;;4.97;3.63;;;;;;;20.03;71.01;98256.44;4203955;28;20643;-71
2022/08/05 02:33:55;;;;;;;5.63;3.70;;;;;;;20.01;70.75;98253.25;4201925;28;20501;-71
2022/08/05 02:35:58;;;;;;;10.57;4.35;;;;;;;19.98;70.90;98248.53;4205690;28;20593;-71
2022/08/05 02:38:00;;;;;;;5.53;3.80;;;;;;;19.88;71.94;98247.63;4203827;28;20040;-71
2022/08/05 02:40:03;;;;;;;8.18;3.97;;;;;;;19.85;71.81;98239.31;4203201;28;20110;-71
2022/08/05 02:42:06;;;;;;;5.80;4.10;;;;;;;19.84;72.06;98248.97;4202189;28;20040;-71
2022/08/05 02:44:09;;;;;;;7.60;3.90;;;;;;;19.83;72.01;98248.19;4202821;28;20024;-71
2022/08/05 02:46:14;;;;;;;5.53;4.55;;;;;;;19.79;73.20;98252.34;4203459;28;20024;-71
2022/08/05 02:48:17;;;;;;;6.40;4.07;;;;;;;19.78;73.02;98253.56;4203316;28;20064;-71
2022/08/05 02:50:18;;;;;;;7.35;4.10;;;;;;;19.82;72.95;98255.03;4202771;28;20376;-72
2022/08/05 02:52:19;;;;;;;5.72;4.07;;;;;;;19.82;73.31;98257.06;4203290;28;20094;-71
2022/08/05 02:54:21;;;;;;;6.63;4.03;;;;;;;19.80;73.15;98260.31;4201624;28;20077;-71
2022/08/05 02:56:23;;;;;;;11.15;4.57;;;;;;;19.82;72.91;98263.44;4203810;28;20059;-71
2022/08/05 02:58:24;;;;;;;7.10;4.13;;;;;;;19.84;73.28;98274.22;4202210;28;20043;-71
2022/08/05 03:00:26;;;;;;;11.55;5.80;;;;;;;19.88;72.58;98305.81;4201941;28;20892;-71
2022/08/05 03:02:32;;;;;;;8.02;5.30;;;;;;;19.99;71.93;98342.00;4203272;28;20554;-71
2022/08/05 03:04:33;;;;;;;9.13;6.32;;;;;;;19.96;71.04;98382.19;4203938;28;20198;-71
2022/08/05 03:06:34;;;;;;;7.45;5.70;;;;;;;20.02;70.99;98403.66;4203596;28;20051;-71
2022/08/05 03:08:36;;;;;;;8.45;5.75;;;;;;;20.10;70.56;98387.41;4203670;28;20081;-71
2022/08/05 03:10:36;;;;;;;9.32;5.85;;;;;;;20.26;70.34;98362.06;4203201;28;20489;-71
2022/08/05 03:12:38;;;;;;;8.48;5.07;;;;;;;20.41;70.42;98359.63;4202700;28;20423;-71
2022/08/05 03:14:39;;;;;;;4.75;4.20;;;;;;;20.65;69.55;98385.44;4202842;28;20231;-71
2022/08/05 03:16:39;;;;;;;8.30;4.25;;;;;;;20.85;68.90;98386.03;4202917;28;20040;-71
2022/08/05 03:18:40;;;;;;;5.65;3.90;;;;;;;20.91;68.79;98378.56;4203147;28;20717;-71
2022/08/05 03:20:41;;;;;;;5.38;3.80;;;;;;;21.05;68.36;98382.97;4203265;28;20086;-71
2022/08/05 03:22:41;;;;;;;12.60;4.03;;;;;;;21.21;67.86;98398.94;4203366;28;20215;-71
2022/08/05 03:24:43;;;;;;;9.45;4.63;;;;;;;21.24;68.03;98400.84;4203816;28;20515;-71
2022/08/05 03:26:44;;;;;;;5.57;3.45;;;;;;;21.25;68.61;98402.41;4203491;28;20036;-71
2022/08/05 03:28:45;;;;;;;6.70;3.40;;;;;;;21.18;69.79;98408.25;4203035;28;20036;-71
2022/08/05 03:30:47;;;;;;;7.07;4.05;;;;;;;21.28;70.03;98418.44;4203248;28;20131;-71
2022/08/05 03:32:48;;;;;;;6.00;3.72;;;;;;;21.25;70.26;98411.63;4202466;28;20059;-71
2022/08/05 03:34:48;;;;;;;6.93;3.60;;;;;;;21.17;70.71;98420.75;4203187;28;20047;-71
2022/08/05 03:36:49;;;;;;;4.72;3.25;;;;;;;21.20;70.86;98408.63;4202508;28;20143;-71
2022/08/05 03:38:49;;;;;;;6.25;3.70;;;;;;;21.17;71.75;98424.34;4202438;28;20597;-71
2022/08/05 03:40:52;;;;;;;6.85;3.33;;;;;;;21.12;72.46;98416.50;4203302;28;20036;-71
2022/08/05 03:42:52;;;;;;;7.05;3.60;;;;;;;21.14;73.03;98418.84;4202226;28;20052;-71
2022/08/05 03:44:52;;;;;;;5.90;3.72;;;;;;;21.15;73.93;98414.81;4201511;28;20047;-71
2022/08/05 03:46:53;;;;;;;4.78;3.80;;;;;;;21.11;74.81;98411.31;4193359;28;20492;-71
2022/08/05 03:48:53;;;;;;;5.63;3.72;;;;;;;21.09;75.10;98411.75;4202281;28;20044;-71
2022/08/05 03:51:19;;;;;;;5.03;3.58;;;;;;;20.99;75.76;98421.31;4199053;28;20624;-71
2022/08/05 03:53:48;;;;;;;5.60;3.63;;;;;;;20.96;76.58;98422.22;4200805;28;20112;-71
2022/08/05 03:55:59;;;;;;;4.97;3.70;;;;;;;20.88;76.99;98407.59;4197717;28;20478;-71
2022/08/05 03:58:00;;;;;;;4.15;3.75;;;;;;;20.92;77.14;98404.66;4200412;28;20093;-71
2022/08/05 04:00:08;;;;;;;5.53;3.92;;;;;;;20.91;77.39;98408.72;4200560;28;20048;-71
2022/08/05 04:02:10;;;;;;;7.03;4.07;;;;;;;20.83;77.96;98396.13;4199652;28;20492;-71
2022/08/05 04:04:12;;;;;;;6.82;4.03;;;;;;;20.83;78.31;98399.72;4202263;28;20032;-71
2022/08/05 04:06:13;;;;;;;;;;;;;;;20.85;78.49;98402.88;4201406;28;20071;-71
2022/08/05 04:08:14;;;;;;;5.38;3.58;;;;;;;20.86;78.73;98398.84;4202750;28;20279;-72
2022/08/05 04:10:16;;;;;;;4.80;4.30;;;;;;;20.71;79.55;98392.88;4200383;28;20388;-71
2022/08/05 04:12:16;;;;;;;5.80;4.00;;;;;;;20.77;79.28;98379.03;4203114;28;20039;-71
2022/08/05 04:14:17;;;;;;;4.75;4.15;;;;;;;20.74;79.85;98363.06;4201687;28;20047;-71
2022/08/05 04:16:18;;;;;;;6.25;3.83;;;;;;;20.71;79.99;98347.09;4203072;28;20028;-72
2022/08/05 04:18:23;;;;;;;6.25;4.50;;;;;;;20.71;79.37;98338.66;4201231;28;20036;-71
2022/08/05 04:20:23;;;;;;;5.30;3.65;;;;;;;20.72;79.46;98326.19;4201992;28;20438;-71
2022/08/05 04:22:23;;;;;;;5.22;3.40;;;;;;;20.77;78.44;98308.75;4200871;28;20648;-71
2022/08/05 04:24:24;;;;;;;9.23;3.83;;;;;;;20.80;78.13;98301.44;4200514;28;20051;-71
2022/08/05 04:26:24;;;;;;;4.00;3.40;;;;;;;20.84;78.09;98304.91;4202017;28;20040;-71
2022/08/05 04:28:25;;;;;;;7.82;3.90;;;;;;;20.88;76.64;98308.41;4202279;28;20037;-71
2022/08/05 04:30:25;;;;;;;6.25;4.10;;;;;;;20.89;78.41;98298.72;4202537;28;21238;-71
2022/08/05 04:32:25;;;;;;;4.78;3.92;;;;;;;20.92;77.64;98276.09;4201688;28;20094;-71
2022/08/05 04:34:26;;;;;;;6.45;3.90;;;;;;;20.94;77.95;98264.41;4203115;28;20074;-71
2022/08/05 04:36:26;;;;;;;7.20;4.47;;;;;;;20.93;77.89;98263.59;4201841;28;20465;-71
2022/08/05 04:38:26;;;;;;;9.13;4.40;;;;;;;20.96;78.20;98262.72;4201230;28;20837;-71
2022/08/05 04:40:27;;;;;;;5.30;3.63;;;;;;;20.97;76.90;98261.47;4201922;28;20073;-72
2022/08/05 04:42:27;;;;;;;3.97;3.50;;;;;;;21.06;77.33;98252.34;4198471;28;20055;-72
2022/08/05 04:44:27;;;;;;;6.32;3.95;;;;;;;21.07;77.04;98247.50;4201010;28;20044;-71
2022/08/05 04:46:28;;;;;;;4.85;3.60;;;;;;;21.08;77.68;98260.31;4202221;28;20048;-71
2022/08/05 04:48:28;;;;;;;7.20;4.63;;;;;;;21.14;77.61;98275.38;4195884;28;20043;-71
2022/08/05 04:50:28;;;;;;;5.75;4.00;;;;;;;21.12;78.26;98294.75;4200775;28;20461;-71
2022/08/05 04:52:29;;;;;;;5.75;4.03;;;;;;;21.11;78.55;98324.13;4198747;28;20424;-71
2022/08/05 04:54:29;;;;;;;5.97;3.90;;;;;;;21.11;76.24;98327.72;4199965;28;20059;-71
2022/08/05 04:56:29;;;;;;;4.72;4.07;;;;;;;21.15;76.26;98324.78;4196935;28;20052;-71
2022/08/05 04:58:30;;;;;;;6.28;3.80;;;;;;;21.21;75.83;98339.84;4199334;28;20043;-71
2022/08/05 05:00:31;;;;;;;8.40;3.95;;;;;;;21.26;75.52;98359.75;4118009;28;20672;-71
2022/08/05 05:02:32;;;;;;;5.80;4.60;;;;;;;21.26;77.01;98387.09;4200726;28;20761;-72
2022/08/05 05:04:32;;;;;;;10.70;4.50;;;;;;;21.25;77.75;98413.66;4199082;28;20063;-71
2022/08/05 05:06:32;;;;;;;6.57;3.70;;;;;;;21.22;77.82;98412.53;4197612;28;20132;-71
2022/08/05 05:08:35;;;;;;;6.80;3.85;;;;;;;21.19;77.96;98418.31;4200816;28;20125;-72
2022/08/05 05:10:40;;;;;;;;;;;;;;;21.20;78.87;98415.03;4200498;28;20073;-72
2022/08/05 05:12:41;;;;;;;5.55;3.53;;;;;;;21.20;78.78;98408.63;4200049;28;20308;-72
2022/08/05 05:14:41;;;;;;;9.60;5.07;;;;;;;21.24;80.80;98386.75;4198826;28;20082;-72
2022/08/05 05:16:41;;;;;;;12.20;4.70;;;;;;;21.18;81.56;98403.41;4200895;28;20057;-72
2022/08/05 05:18:42;;;;;;;7.15;4.70;;;;;;;21.13;82.69;98415.25;4199925;28;20326;-72
2022/08/05 05:20:44;;;;;;;8.13;4.55;;;;;;;21.18;80.40;98420.28;4198658;28;20052;-72
2022/08/05 05:22:45;;;;;;;10.30;4.60;;;;;;;21.20;82.65;98440.34;4190872;28;20332;-72
2022/08/05 05:24:45;;;;;;;7.63;4.57;;;;;;;21.23;82.99;98439.44;4198309;28;20051;-72
2022/08/05 05:26:45;;;;;;;9.15;4.70;;;;;;;21.26;82.64;98438.53;4200286;28;20048;-72
2022/08/05 05:28:46;;;;;;;9.55;5.80;;;;;;;21.25;83.34;98444.59;4199172;28;20430;-72
2022/08/05 05:30:46;;;;;;;5.60;4.30;;;;;;;21.26;82.75;98423.66;4197612;28;20539;-72
2022/08/05 05:32:46;;;;;;;6.97;4.20;;;;;;;21.23;83.06;98428.19;4199355;28;20048;-72
2022/08/05 05:34:47;;;;;;;6.97;4.57;;;;;;;21.18;83.45;98445.63;4197957;28;20110;-72
2022/08/05 05:36:47;;;;;;;14.73;4.78;;;;;;;21.17;82.41;98448.88;4196024;28;20040;-72
2022/08/05 05:38:47;;;;;;;6.85;4.20;;;;;;;21.30;78.56;98415.94;4195862;28;20109;-72
2022/08/05 05:40:48;;;;;;;8.05;5.25;;;;;;;21.21;84.33;98461.63;4199880;28;20041;-72
2022/08/05 05:42:49;;;;;;;8.27;4.80;;;;;;;21.20;83.77;98457.22;4200399;28;20234;-72
2022/08/05 05:44:49;;;;;;;8.85;4.53;;;;;;;21.20;81.03;98445.19;4199463;28;20064;-72
2022/08/05 05:46:49;;;;;;;6.32;4.68;;;;;;;21.29;82.16;98445.31;4201345;28;20349;-72
2022/08/05 05:48:50;;;;;;;9.20;4.80;;;;;;;21.29;82.13;98451.75;4198883;28;20051;-72
2022/08/05 05:50:51;;;;;;;14.02;5.57;;;;;;;21.25;83.49;98459.47;4201241;28;20048;-72
2022/08/05 05:52:51;;;;;;;5.72;4.15;;;;;;;21.20;83.40;98453.63;4199587;28;20079;-72
2022/08/05 05:54:52;;;;;;;6.97;4.57;;;;;;;21.16;83.19;98447.31;4200024;28;20040;-72
2022/08/05 05:56:52;;;;;;;6.35;4.68;;;;;;;21.18;83.73;98459.69;4200131;28;20467;-72
2022/08/05 05:58:52;;;;;;;7.63;4.28;;;;;;;21.18;82.60;98464.53;4197464;28;20041;-72
2022/08/05 06:00:52;;;;;;;9.18;4.90;;;;;;;21.18;84.08;98468.13;4198963;28;20168;-72
2022/08/05 06:02:53;;;;;;;4.90;4.00;;;;;;;21.18;83.49;98465.31;4199919;28;20040;-72
2022/08/05 06:04:53;;;;;;;6.57;4.63;;;;;;;21.21;82.85;98458.81;4200228;28;20044;-72
2022/08/05 06:06:53;;;;;;;8.52;4.95;;;;;;;21.21;84.96;98458.81;4198285;28;20040;-72
2022/08/05 06:08:54;;;;;;;7.90;4.65;;;;;;;21.17;84.63;98452.50;4199187;28;20348;-72
2022/08/05 06:10:54;;;;;;;7.32;5.35;;;;;;;21.20;84.23;98454.41;4196835;28;20045;-72
2022/08/05 06:12:54;;;;;;;7.25;4.93;;;;;;;21.22;83.82;98453.97;4194735;28;20076;-72
2022/08/05 06:14:55;;;;;;;7.13;4.85;;;;;;;21.25;83.53;98439.75;4200132;28;20119;-72
2022/08/05 06:16:56;;;;;;;6.00;5.13;;;;;;;21.33;82.92;98442.38;4200034;28;20044;-72
2022/08/05 06:18:56;;;;;;;4.70;4.20;;;;;;;21.39;83.12;98427.31;4198418;28;20058;-72
2022/08/05 06:20:56;;;;;;;7.32;5.05;;;;;;;21.44;85.63;98420.34;4200985;28;20040;-72
2022/08/05 06:22:57;;;;;;;12.57;5.78;;;;;;;21.52;83.56;98427.28;4199709;28;20087;-72
2022/08/05 06:24:57;;;;;;;15.43;5.78;;;;;;;21.55;85.35;98437.63;4199101;28;20144;-72
2022/08/05 06:26:58;;;;;;;9.73;5.00;;;;;;;21.56;84.48;98433.59;4200637;28;20043;-72
2022/08/05 06:28:58;;;;;;;7.55;5.20;;;;;;;21.61;83.44;98429.41;4201020;28;20365;-72
2022/08/05 06:30:59;;;;;;;6.57;5.20;;;;;;;21.62;84.90;98426.16;4199794;28;20111;-72
2022/08/05 06:32:59;;;;;;;5.75;4.68;;;;;;;21.65;84.95;98418.81;4199214;28;20077;-72
2022/08/05 06:34:59;;;;;;;8.50;4.68;;;;;;;21.70;84.83;98427.47;4200100;28;20117;-72
2022/08/05 06:37:00;;;;;;;7.15;4.97;;;;;;;21.71;85.39;98437.50;4199071;28;20472;-72
2022/08/05 06:39:00;;;;;;;11.88;6.13;;;;;;;21.73;84.32;98463.16;4199766;28;20109;-72
2022/08/05 06:41:00;;;;;;;9.52;5.15;;;;;;;21.76;84.02;98459.47;4199171;28;20050;-72
2022/08/05 06:43:01;;;;;;;5.15;4.35;;;;;;;21.81;83.74;98461.69;4202681;28;20043;-72
2022/08/05 06:45:01;;;;;;;6.43;4.68;;;;;;;21.88;83.29;98446.56;4201518;28;20036;-72
2022/08/05 06:47:02;;;;;;;7.97;5.10;;;;;;;21.96;82.68;98430.22;4199396;28;20541;-72
2022/08/05 06:49:02;;;;;;;9.15;5.53;;;;;;;22.04;80.97;98411.81;4204044;28;20055;-72
2022/08/05 06:51:03;;;;;;;10.88;4.93;;;;;;;22.21;81.37;98426.53;4203988;28;20079;-72
2022/08/05 06:53:03;;;;;;;8.52;5.57;;;;;;;22.31;80.67;98437.41;4203501;28;20063;-72
2022/08/05 06:55:05;;;;;;;7.03;4.72;;;;;;;22.34;79.60;98415.97;4204252;28;20036;-72
2022/08/05 06:57:05;;;;;;;7.35;5.18;;;;;;;22.41;80.86;98429.81;4202448;28;20059;-72
2022/08/05 06:59:06;;;;;;;9.10;4.72;;;;;;;22.50;78.94;98429.06;4201036;28;20535;-72
2022/08/05 07:01:07;;;;;;;7.78;4.22;;;;;;;22.56;77.30;98416.75;4202953;28;20158;-72
2022/08/05 07:03:07;;;;;;;6.70;4.15;;;;;;;22.65;76.61;98438.56;4203831;28;20698;-72
2022/08/05 07:05:08;;;;;;;4.85;3.70;;;;;;;22.70;76.09;98452.09;4202203;28;20539;-72
2022/08/05 07:07:08;;;;;;;13.00;4.43;;;;;;;22.77;75.61;98465.16;4204060;28;20044;-72
2022/08/05 07:09:09;;;;;;;5.82;4.22;;;;;;;22.82;76.20;98465.31;4203651;28;20044;-72
2022/08/05 07:11:10;;;;;;;6.72;4.07;;;;;;;22.81;75.53;98469.38;4203250;28;20051;-72
2022/08/05 07:17:48;;;;;;;4.63;3.50;;;;;;;22.84;72.14;98479.78;4203190;28;20051;-72
2022/08/05 07:19:51;;;;;;;4.93;3.80;;;;;;;22.77;72.80;98457.47;4203160;28;20040;-72
2022/08/05 07:21:51;;;;;;;8.45;4.20;;;;;;;22.66;74.35;98457.84;4202775;28;20048;-72
2022/08/05 07:23:52;;;;;;;6.88;4.47;;;;;;;22.59;74.79;98474.25;4203821;28;20054;-71
2022/08/05 07:25:52;;;;;;;9.75;4.25;;;;;;;22.47;75.29;98477.94;4195126;28;20058;-71
2022/08/05 07:27:54;;;;;;;11.40;4.45;;;;;;;22.41;76.47;98480.53;4193820;28;20048;-71
2022/08/05 07:29:57;;;;;;;7.10;4.30;;;;;;;22.30;77.09;98478.13;4196818;28;20588;-71
2022/08/05 07:31:57;;;;;;;5.90;3.47;;;;;;;22.20;78.09;98482.09;4196287;28;20059;-71
2022/08/05 07:33:59;;;;;;;5.18;3.80;;;;;;;22.14;79.21;98470.63;4195643;28;20086;-71
2022/08/05 07:35:59;;;;;;;4.95;4.25;;;;;;;22.05;79.60;98470.50;4202731;28;20049;-72
2022/08/05 07:37:59;;;;;;;6.43;4.13;;;;;;;22.02;78.09;98450.94;4202413;28;20468;-71
2022/08/05 07:40:00;;;;;;;7.57;3.97;;;;;;;22.04;78.17;98442.81;4200687;28;20043;-72
2022/08/05 07:42:01;;;;;;;4.93;3.92;;;;;;;22.05;80.58;98447.19;4203202;28;20090;-72
2022/08/05 07:44:02;;;;;;;6.78;4.35;;;;;;;22.07;83.97;98456.78;4203157;28;20044;-72
2022/08/05 07:46:03;;;;;;;7.97;5.13;;;;;;;22.07;87.93;98470.06;4203529;28;20024;-72
2022/08/05 07:48:04;;;;;;;13.20;4.60;;;;;;;22.09;87.20;98465.59;4203579;28;20039;-72
2022/08/05 07:50:05;;;;;;;7.40;4.73;;;;;;;22.10;87.73;98467.16;4202604;28;20355;-72
2022/08/05 07:52:05;;;;;;;8.98;5.13;;;;;;;22.13;88.60;98459.81;4204173;28;20028;-72
2022/08/05 07:54:06;;;;;;;10.43;5.57;;;;;;;22.19;90.16;98466.44;4201352;28;20036;-72
2022/08/05 07:56:07;;;;;;;9.38;4.35;;;;;;;22.23;86.85;98460.69;4203860;28;20039;-72
2022/08/05 07:58:07;;;;;;;9.88;4.68;;;;;;;22.28;86.97;98454.47;4204205;28;20039;-72
2022/08/05 08:00:08;;;;;;;10.18;5.65;;;;;;;22.29;87.44;98447.56;4203467;28;20031;-72
2022/08/05 08:02:10;;;;;;;12.88;5.93;;;;;;;22.30;88.27;98441.47;4204130;28;20044;-72
2022/08/05 08:04:10;;;;;;;6.85;5.30;;;;;;;22.30;88.35;98432.25;4202579;28;20024;-72
2022/08/05 08:06:10;;;;;;;7.75;5.15;;;;;;;22.36;83.26;98424.78;4201932;28;20461;-72
2022/08/05 08:08:12;;;;;;;7.53;4.60;;;;;;;22.56;80.41;98421.59;4203076;28;20039;-72
2022/08/05 08:10:12;;;;;;;6.07;4.50;;;;;;;22.73;80.76;98411.69;4203079;28;20460;-72
2022/08/05 08:12:13;;;;;;;10.57;4.15;;;;;;;22.86;78.22;98406.00;4201815;28;20032;-72
2022/08/05 08:14:14;;;;;;;6.07;3.85;;;;;;;23.04;76.09;98406.06;4202112;28;20111;-72
2022/08/05 08:16:14;;;;;;;7.30;4.22;;;;;;;23.09;78.05;98415.97;4203208;28;20066;-72
2022/08/05 08:18:15;;;;;;;13.70;5.53;;;;;;;23.09;76.44;98419.59;4202176;28;20024;-72
2022/08/05 08:20:15;;;;;;;6.75;4.32;;;;;;;23.18;78.13;98413.97;4203148;28;20024;-72
2022/08/05 08:22:15;;;;;;;9.55;3.97;;;;;;;23.22;77.29;98414.59;4202647;28;20372;-72
2022/08/05 08:24:16;;;;;;;4.22;3.83;;;;;;;23.37;76.62;98408.38;4203545;28;20024;-72
2022/08/05 08:26:16;;;;;;;9.32;3.75;;;;;;;23.49;76.01;98421.56;4203135;28;20047;-72
2022/08/05 08:28:16;;;;;;;5.93;3.38;;;;;;;23.59;76.41;98413.94;4202520;28;20062;-72
2022/08/05 08:30:17;;;;;;;6.68;3.92;;;;;;;23.67;75.48;98415.22;4202095;28;20028;-72
2022/08/05 08:32:17;;;;;;;4.88;3.10;;;;;;;23.77;72.64;98422.44;4201058;28;20090;-72
2022/08/05 08:34:20;;;;;;;4.80;3.60;;;;;;;23.72;73.11;98423.06;4202858;28;20368;-72
2022/08/05 08:36:20;;;;;;;4.22;3.50;;;;;;;23.83;72.24;98429.03;4202019;28;20027;-72
2022/08/05 08:38:21;;;;;;;5.38;3.47;;;;;;;23.79;74.90;98429.19;4201807;28;20052;-72
2022/08/05 08:40:21;;;;;;;3.35;2.92;;;;;;;23.79;71.10;98434.06;4202787;28;20055;-72
2022/08/05 08:42:22;;;;;;;4.32;3.22;;;;;;;23.75;71.45;98436.25;4202390;28;20055;-72
2022/08/05 08:44:24;;;;;;;3.92;3.05;;;;;;;23.85;71.11;98429.38;4202321;28;20032;-72
2022/08/05 08:46:26;;;;;;;;;;;;;;;24.02;71.95;98435.50;4203311;28;20446;-72
2022/08/05 08:48:29;;;;;;;5.15;3.22;;;;;;;24.08;71.63;98440.06;4202154;28;19963;-72
2022/08/05 08:50:32;;;;;;;3.95;3.25;;;;;;;24.08;72.04;98439.28;4201293;28;20047;-72
2022/08/05 08:52:35;;;;;;;4.07;3.38;;;;;;;24.14;72.05;98447.91;4203195;28;20238;-72
2022/08/05 08:54:36;;;;;;;4.40;3.30;;;;;;;24.13;71.63;98435.81;4201697;28;20047;-72
2022/08/05 08:56:39;;;;;;;5.82;3.20;;;;;;;24.09;69.96;98441.63;4202574;28;20047;-72
2022/08/05 08:58:40;;;;;;;5.60;2.90;;;;;;;24.07;72.08;98432.81;4201659;28;20442;-72
2022/08/05 09:00:41;;;;;;;3.85;3.00;;;;;;;24.14;71.94;98433.78;4201108;28;20488;-72
2022/08/05 09:02:43;;;;;;;3.83;2.95;;;;;;;24.18;70.37;98442.88;4201832;28;20245;-72
2022/08/05 09:04:45;;;;;;;3.42;3.05;;;;;;;24.20;70.89;98446.03;4202078;28;20106;-72
2022/08/05 09:06:47;;;;;;;4.55;3.17;;;;;;;24.28;68.70;98444.47;4201858;28;20085;-72
2022/08/05 09:08:47;;;;;;;6.40;3.13;;;;;;;24.42;67.89;98451.56;4200844;28;20040;-72
2022/08/05 09:10:50;;;;;;;4.32;3.10;;;;;;;24.69;70.36;98459.22;4202910;28;20048;-72
2022/08/05 09:12:50;;;;;;;3.55;3.25;;;;;;;24.86;68.84;98446.28;4202730;28;20518;-72
2022/08/05 09:14:50;;;;;;;4.10;3.03;;;;;;;24.95;67.91;98451.91;4201758;28;20048;-72
2022/08/05 09:16:51;;;;;;;3.50;2.85;;;;;;;25.07;65.03;98450.16;4201872;28;20142;-72
2022/08/05 09:18:51;;;;;;;5.88;3.17;;;;;;;25.28;64.74;98454.81;4200903;28;20040;-72
2022/08/05 09:20:52;;;;;;;3.65;3.00;;;;;;;25.42;64.05;98454.13;4201283;28;20059;-72
2022/08/05 09:23:01;;;;;;;3.53;3.22;;;;;;;25.51;64.31;98452.50;4202169;28;20044;-72
2022/08/05 09:25:02;;;;;;;7.70;3.10;;;;;;;25.60;64.35;98447.56;4202465;28;20063;-72
2022/08/05 09:27:07;;;;;;;3.13;2.67;;;;;;;25.63;62.16;98455.09;4200585;28;20044;-72
2022/08/05 09:29:07;;;;;;;5.07;3.30;;;;;;;25.69;65.00;98441.06;4201718;28;20036;-72
2022/08/05 09:31:14;;;;;;;3.85;3.10;;;;;;;25.86;61.10;98435.78;4201449;28;20370;-72
2022/08/05 09:33:14;;;;;;;3.40;3.10;;;;;;;26.06;61.29;98438.78;4201788;28;20492;-72
2022/08/05 09:35:16;;;;;;;4.18;3.45;;;;;;;26.16;60.15;98442.34;4201584;28;20051;-72
2022/08/05 09:37:34;;;;;;;4.10;3.10;;;;;;;26.20;60.09;98434.44;4202953;28;20051;-72
2022/08/05 09:39:37;;;;;;;3.90;3.33;;;;;;;26.33;60.07;98427.22;4202322;28;20329;-72